createdAt,value
2023-04-11T00:01:34.208Z,100.00
2023-04-11T00:06:39.608Z,100.00
2023-04-11T00:11:44.336Z,100.00
2023-04-11T00:16:49.916Z,100.00
2023-04-11T00:21:58.198Z,100.00
2023-04-11T00:27:02.617Z,100.00
2023-04-11T00:32:07.360Z,100.00
2023-04-11T00:37:12.879Z,100.00
2023-04-11T00:42:17.059Z,100.00
2023-04-11T00:47:22.324Z,100.00
2023-04-11T00:52:27.981Z,100.00
2023-04-11T00:57:32.296Z,100.00
2023-04-11T01:02:37.625Z,100.00
2023-04-11T01:07:45.042Z,100.00
2023-04-11T01:12:48.997Z,100.00
2023-04-11T01:17:55.807Z,100.00
2023-04-11T01:23:03.174Z,100.00
2023-04-11T01:28:10.216Z,100.00
2023-04-11T01:33:15.222Z,100.00
2023-04-11T01:38:19.584Z,100.00
2023-04-11T01:43:25.014Z,100.00
2023-04-11T01:48:29.232Z,100.00
2023-04-11T01:53:33.478Z,100.00
2023-04-11T01:58:39.110Z,100.00
2023-04-11T02:03:43.701Z,100.00
2023-04-11T02:08:47.770Z,100.00
2023-04-11T02:13:53.253Z,100.00
2023-04-11T02:18:57.938Z,100.00
2023-04-11T02:24:02.253Z,100.00
2023-04-11T02:29:07.907Z,100.00
2023-04-11T02:34:11.996Z,100.00
2023-04-11T02:39:16.422Z,100.00
2023-04-11T02:44:22.763Z,100.00
2023-04-11T02:49:27.839Z,100.00
2023-04-11T02:54:32.068Z,100.00
2023-04-11T02:59:39.179Z,100.00
2023-04-11T03:04:43.934Z,100.00
2023-04-11T03:09:52.809Z,100.00
2023-04-11T03:14:58.342Z,100.00
2023-04-11T03:20:02.525Z,100.00
2023-04-11T03:25:08.760Z,100.00
2023-04-11T03:30:15.987Z,100.00
2023-04-11T03:35:23.208Z,100.00
2023-04-11T03:40:27.993Z,100.00
2023-04-11T03:45:43.456Z,100.00
2023-04-11T03:50:54.923Z,100.00
2023-04-11T03:56:05.404Z,100.00
2023-04-11T04:01:16.529Z,100.00
2023-04-11T04:06:21.530Z,100.00
2023-04-11T04:11:26.741Z,100.00
2023-04-11T04:16:34.630Z,100.00
2023-04-11T04:21:43.317Z,100.00
2023-04-11T04:26:50.168Z,100.00
2023-04-11T04:32:14.936Z,100.00
2023-04-11T04:37:27.324Z,100.00
2023-04-11T04:42:41.488Z,100.00
2023-04-11T04:47:48.992Z,100.00
2023-04-11T04:52:53.234Z,100.00
2023-04-11T04:57:57.166Z,100.00
2023-04-11T05:03:05.858Z,100.00
2023-04-11T05:08:11.030Z,100.00
2023-04-11T05:13:16.095Z,100.00
2023-04-11T05:18:21.714Z,100.00
2023-04-11T05:23:26.068Z,100.00
2023-04-11T05:28:33.069Z,100.00
2023-04-11T05:33:40.581Z,100.00
2023-04-11T05:38:45.336Z,100.00
2023-04-11T05:43:49.399Z,100.00
2023-04-11T05:48:58.086Z,100.00
2023-04-11T05:54:01.977Z,100.00
2023-04-11T05:59:05.846Z,100.00
2023-04-11T06:04:11.614Z,100.00
2023-04-11T06:09:15.960Z,100.00
2023-04-11T06:14:20.086Z,100.00
2023-04-11T06:19:25.372Z,100.00
2023-04-11T06:24:37.289Z,100.00
2023-04-11T06:29:43.618Z,100.00
2023-04-11T06:34:49.183Z,100.00
2023-04-11T06:39:53.175Z,100.00
2023-04-11T06:44:57.327Z,100.00
2023-04-11T06:50:02.644Z,100.00
2023-04-11T06:55:08.527Z,100.00
2023-04-11T07:00:13.742Z,100.00
2023-04-11T07:05:19.541Z,100.00
2023-04-11T07:10:25.100Z,100.00
2023-04-11T07:15:29.287Z,100.00
2023-04-11T07:20:35.080Z,100.00
2023-04-11T07:25:39.298Z,100.00
2023-04-11T07:30:43.699Z,100.00
2023-04-11T07:35:49.240Z,100.00
2023-04-11T07:40:53.362Z,100.00
2023-04-11T07:45:59.288Z,100.00
2023-04-11T07:51:04.772Z,100.00
2023-04-11T07:56:09.929Z,100.00
2023-04-11T08:01:24.102Z,100.00
2023-04-11T08:06:31.505Z,100.00
2023-04-11T08:11:36.613Z,100.00
2023-04-11T08:16:41.006Z,100.00
2023-04-11T08:21:46.487Z,100.00
2023-04-11T08:26:50.566Z,100.00
2023-04-11T08:31:54.721Z,100.00
2023-04-11T08:36:59.974Z,100.00
2023-04-11T08:42:04.432Z,100.00
2023-04-11T08:47:08.746Z,100.00
2023-04-11T08:52:14.333Z,98.90
2023-04-11T08:57:28.572Z,97.25
2023-04-11T09:02:32.578Z,94.97
2023-04-11T09:07:49.293Z,89.06
2023-04-11T09:12:54.181Z,83.19
2023-04-11T09:18:00.628Z,81.25
2023-04-11T09:23:06.875Z,83.51
2023-04-11T09:28:12.146Z,76.33
2023-04-11T09:33:23.482Z,72.00
2023-04-11T09:38:33.649Z,72.09
2023-04-11T09:43:51.310Z,71.96
2023-04-11T09:48:56.758Z,68.81
2023-04-11T09:54:03.796Z,69.84
2023-04-11T09:59:08.315Z,71.85
2023-04-11T10:04:13.806Z,71.43
2023-04-11T10:09:19.737Z,71.16
2023-04-11T10:14:42.795Z,71.75
2023-04-11T10:19:48.368Z,69.36
2023-04-11T10:25:17.840Z,67.66
2023-04-11T10:30:51.062Z,68.81
2023-04-11T10:35:59.782Z,62.83
2023-04-11T10:41:19.208Z,62.58
2023-04-11T10:46:24.360Z,61.68
2023-04-11T10:51:28.861Z,61.05
2023-04-11T10:56:58.797Z,62.70
2023-04-11T11:02:03.929Z,63.26
2023-04-11T11:07:09.323Z,62.10
2023-04-11T11:12:16.260Z,61.04
2023-04-11T11:17:20.437Z,59.72
2023-04-11T11:22:26.421Z,58.65
2023-04-11T11:27:31.856Z,56.34
2023-04-11T11:32:36.000Z,55.85
2023-04-11T11:37:39.916Z,55.52
2023-04-11T11:42:45.216Z,55.62
2023-04-11T11:47:50.566Z,52.92
2023-04-11T11:52:54.570Z,53.50
2023-04-11T11:58:03.334Z,51.62
2023-04-11T12:03:09.982Z,53.48
2023-04-11T12:08:14.207Z,52.96
2023-04-11T12:13:20.823Z,50.63
2023-04-11T12:18:26.592Z,50.53
2023-04-11T12:23:30.716Z,52.03
2023-04-11T12:28:36.170Z,48.57
2023-04-11T12:33:40.364Z,47.96
2023-04-11T12:38:45.115Z,49.66
2023-04-11T12:43:50.514Z,48.00
2023-04-11T12:48:54.789Z,47.84
2023-04-11T12:53:58.854Z,47.72
2023-04-11T12:59:04.296Z,45.26
2023-04-11T13:04:08.604Z,47.68
2023-04-11T13:09:12.634Z,47.98
2023-04-11T13:14:18.107Z,46.48
2023-04-11T13:19:22.692Z,47.06
2023-04-11T13:24:27.163Z,45.59
2023-04-11T13:29:32.383Z,47.46
2023-04-11T13:34:36.928Z,46.71
2023-04-11T13:39:41.333Z,46.00
2023-04-11T13:44:47.001Z,45.09
2023-04-11T13:49:50.868Z,46.48
2023-04-11T13:54:55.085Z,47.21
2023-04-11T14:00:00.529Z,46.82
2023-04-11T14:05:04.748Z,47.75
2023-04-11T14:10:09.450Z,49.71
2023-04-11T14:15:14.734Z,50.06
2023-04-11T14:20:19.378Z,51.40
2023-04-11T14:25:23.679Z,51.95
2023-04-11T14:30:29.014Z,53.87
2023-04-11T14:35:33.093Z,54.17
2023-04-11T14:40:37.336Z,54.85
2023-04-11T14:45:43.095Z,55.69
2023-04-11T14:50:47.059Z,55.72
2023-04-11T14:55:51.371Z,57.65
2023-04-11T15:00:56.939Z,58.14
2023-04-11T15:06:00.846Z,59.16
2023-04-11T15:11:04.976Z,60.42
2023-04-11T15:16:10.621Z,61.80
2023-04-11T15:21:15.505Z,64.09
2023-04-11T15:26:19.662Z,66.76
2023-04-11T15:31:26.871Z,83.68
2023-04-11T15:36:31.482Z,95.62
2023-04-11T15:41:36.056Z,100.00
2023-04-11T15:46:41.830Z,100.00
2023-04-11T15:51:46.463Z,100.00
2023-04-11T15:56:50.839Z,100.00
2023-04-11T16:01:56.375Z,100.00
2023-04-11T16:07:00.563Z,100.00
2023-04-11T16:12:05.583Z,100.00
2023-04-11T16:17:10.902Z,100.00
2023-04-11T16:22:15.536Z,100.00
2023-04-11T16:27:19.759Z,100.00
2023-04-11T16:32:25.270Z,100.00
2023-04-11T16:37:29.185Z,100.00
2023-04-11T16:42:33.284Z,100.00
2023-04-11T16:47:39.292Z,100.00
2023-04-11T16:52:43.803Z,100.00
2023-04-11T16:57:48.067Z,100.00
2023-04-11T17:02:53.784Z,100.00
2023-04-11T17:07:58.083Z,100.00
2023-04-11T17:13:02.257Z,100.00
2023-04-11T17:18:07.925Z,100.00
2023-04-11T17:23:12.385Z,100.00
2023-04-11T17:28:16.518Z,100.00
2023-04-11T17:33:23.956Z,100.00
2023-04-11T17:38:27.833Z,100.00
2023-04-11T17:43:31.780Z,100.00
2023-04-11T17:48:37.946Z,100.00
2023-04-11T17:53:42.143Z,100.00
2023-04-11T17:58:48.053Z,100.00
2023-04-11T18:03:53.321Z,100.00
2023-04-11T18:08:57.443Z,100.00
2023-04-11T18:14:01.375Z,100.00
2023-04-11T18:19:06.601Z,100.00
2023-04-11T18:24:11.111Z,100.00
2023-04-11T18:29:15.607Z,100.00
2023-04-11T18:34:21.101Z,100.00
2023-04-11T18:39:25.708Z,100.00
2023-04-11T18:44:30.414Z,100.00
2023-04-11T18:49:37.303Z,100.00
2023-04-11T18:54:42.183Z,100.00
2023-04-11T18:59:50.161Z,100.00
2023-04-11T19:04:57.224Z,100.00
2023-04-11T19:10:03.265Z,100.00
2023-04-11T19:15:09.249Z,100.00
2023-04-11T19:20:16.739Z,100.00
2023-04-11T19:25:21.767Z,100.00
2023-04-11T19:30:26.105Z,100.00
2023-04-11T19:35:31.522Z,100.00
2023-04-11T19:40:35.913Z,100.00
2023-04-11T19:45:39.926Z,100.00
2023-04-11T19:50:45.194Z,100.00
2023-04-11T19:55:52.170Z,100.00
2023-04-11T20:00:56.102Z,100.00
2023-04-11T20:06:03.334Z,100.00
2023-04-11T20:11:07.714Z,100.00
2023-04-11T20:16:11.752Z,100.00
2023-04-11T20:21:17.027Z,100.00
2023-04-11T20:26:21.192Z,100.00
2023-04-11T20:31:25.463Z,100.00
2023-04-11T20:36:32.969Z,100.00
2023-04-11T20:41:40.659Z,100.00
2023-04-11T20:46:45.169Z,100.00
2023-04-11T20:51:51.088Z,100.00
2023-04-11T20:56:55.894Z,100.00
2023-04-11T21:02:00.161Z,100.00
2023-04-11T21:07:05.633Z,100.00
2023-04-11T21:12:09.705Z,100.00
2023-04-11T21:17:13.842Z,100.00
2023-04-11T21:22:19.378Z,100.00
2023-04-11T21:27:23.632Z,100.00
2023-04-11T21:32:28.091Z,100.00
2023-04-11T21:37:33.930Z,100.00
2023-04-11T21:42:38.036Z,100.00
2023-04-11T21:47:42.031Z,100.00
2023-04-11T21:52:47.738Z,100.00
2023-04-11T21:57:51.862Z,100.00
2023-04-11T22:02:56.281Z,100.00
2023-04-11T22:08:11.966Z,100.00
2023-04-11T22:13:17.065Z,100.00
2023-04-11T22:18:26.266Z,100.00
2023-04-11T22:23:31.897Z,100.00
2023-04-11T22:28:36.328Z,100.00
2023-04-11T22:33:41.346Z,100.00
2023-04-11T22:38:46.682Z,100.00
2023-04-11T22:43:50.686Z,100.00
2023-04-11T22:48:54.950Z,100.00
2023-04-11T22:54:01.276Z,100.00
2023-04-11T22:59:05.303Z,100.00
2023-04-11T23:04:10.046Z,100.00
2023-04-11T23:09:15.297Z,100.00
2023-04-11T23:14:21.284Z,100.00
2023-04-11T23:19:27.195Z,100.00
2023-04-11T23:24:32.669Z,100.00
2023-04-11T23:29:37.190Z,100.00
2023-04-11T23:34:41.559Z,100.00
2023-04-11T23:39:47.581Z,100.00
2023-04-11T23:44:51.652Z,100.00
2023-04-11T23:49:55.742Z,100.00
2023-04-11T23:55:01.030Z,100.00
